Time;durP1;ratioP1;P1;durP2;ratioP2;P2;SDS_P1;SDS_P2;PMS_P1;PMS_P2;Temp;Humidity;BMP_temperature;BMP_pressure;BME280_temperature;BME280_humidity;BME280_pressure;Samples;Min_cycle;Max_cycle;Signal;HPM_P1;HPM_P2
2022/03/10 00:01:31;;;;;;;34.87;18.17;;;;;;;;;;5094957;28;20521;-55
2022/03/10 00:03:57;;;;;;;39.97;18.27;;;;;;;;;;5113461;28;20893;-57
2022/03/10 00:06:23;;;;;;;29.77;17.40;;;;;;;;;;5113265;28;20405;-54
2022/03/10 00:08:49;;;;;;;31.50;17.80;;;;;;;;;;5095037;28;20409;-54
2022/03/10 00:11:15;;;;;;;32.53;19.10;;;;;;;;;;5095188;28;20464;-55
2022/03/10 00:13:41;;;;;;;33.17;18.77;;;;;;;;;;5095118;28;20412;-56
2022/03/10 00:16:07;;;;;;;31.70;17.73;;;;;;;;;;5113428;28;20416;-55
2022/03/10 00:18:33;;;;;;;32.40;19.27;;;;;;;;;;5112991;28;20540;-53
2022/03/10 00:20:59;;;;;;;29.70;17.00;;;;;;;;;;5095000;28;20456;-53
2022/03/10 00:23:25;;;;;;;32.60;17.40;;;;;;;;;;5094951;28;20413;-55
2022/03/10 00:25:51;;;;;;;35.43;17.03;;;;;;;;;;5094964;28;20459;-54
2022/03/10 00:28:18;;;;;;;26.47;15.57;;;;;;;;;;5113125;28;20417;-52
2022/03/10 00:30:46;;;;;;;26.70;16.90;;;;;;;;;;5113165;28;20401;-61
2022/03/10 00:33:12;;;;;;;31.40;16.13;;;;;;;;;;5113083;28;20416;-53
2022/03/10 00:35:39;;;;;;;26.27;16.00;;;;;;;;;;5112007;28;20448;-54
2022/03/10 00:38:05;;;;;;;25.47;15.57;;;;;;;;;;5112887;28;20454;-52
2022/03/10 00:40:31;;;;;;;26.73;15.37;;;;;;;;;;5112734;28;20527;-54
2022/03/10 00:42:57;;;;;;;28.40;15.70;;;;;;;;;;5112849;28;20488;-56
2022/03/10 00:45:25;;;;;;;27.47;15.63;;;;;;;;;;5112687;28;20909;-55
2022/03/10 00:47:51;;;;;;;26.83;15.60;;;;;;;;;;5112661;28;20416;-54
2022/03/10 00:50:17;;;;;;;28.83;15.57;;;;;;;;;;5112917;28;20401;-54
2022/03/10 00:52:47;;;;;;;27.13;15.87;;;;;;;;;;5112745;28;20409;-57
2022/03/10 00:55:15;;;;;;;24.10;14.67;;;;;;;;;;5112653;28;20774;-55
2022/03/10 00:57:41;;;;;;;23.27;14.50;;;;;;;;;;5112539;28;20416;-55
2022/03/10 01:00:08;;;;;;;26.00;16.27;;;;;;;;;;5094058;28;20424;-53
2022/03/10 01:02:34;;;;;;;27.10;15.50;;;;;;;;;;5112414;28;20429;-52
2022/03/10 01:05:00;;;;;;;28.03;15.77;;;;;;;;;;5112443;28;20405;-54
2022/03/10 01:07:27;;;;;;;26.40;15.80;;;;;;;;;;5112471;28;20405;-55
2022/03/10 01:09:53;;;;;;;35.90;18.53;;;;;;;;;;5112273;28;20401;-55
2022/03/10 01:12:19;;;;;;;26.90;16.67;;;;;;;;;;5112130;28;20497;-52
2022/03/10 01:14:50;;;;;;;24.93;15.87;;;;;;;;;;5112482;28;20409;-56
2022/03/10 01:17:17;;;;;;;26.90;15.17;;;;;;;;;;5094251;28;20821;-54
2022/03/10 01:19:43;;;;;;;25.53;16.00;;;;;;;;;;5112346;28;20405;-54
2022/03/10 01:22:09;;;;;;;28.90;16.97;;;;;;;;;;5112138;28;20503;-55
2022/03/10 01:24:35;;;;;;;25.37;15.47;;;;;;;;;;5112304;28;20397;-53
2022/03/10 01:27:01;;;;;;;27.57;16.47;;;;;;;;;;5112439;28;20845;-56
2022/03/10 01:29:27;;;;;;;28.90;17.40;;;;;;;;;;5112195;28;20757;-53
2022/03/10 01:31:53;;;;;;;30.63;16.77;;;;;;;;;;5112270;28;20480;-54
2022/03/10 01:34:19;;;;;;;29.93;16.17;;;;;;;;;;5112232;28;20462;-54
2022/03/10 01:36:45;;;;;;;26.43;15.77;;;;;;;;;;5112155;28;20401;-55
2022/03/10 01:39:11;;;;;;;26.70;16.00;;;;;;;;;;5093944;28;20408;-54
2022/03/10 01:41:38;;;;;;;33.30;18.87;;;;;;;;;;5111929;28;20797;-53
2022/03/10 01:44:05;;;;;;;31.30;16.33;;;;;;;;;;5112131;28;20405;-52
2022/03/10 01:46:32;;;;;;;27.63;16.77;;;;;;;;;;5095461;28;20408;-52
2022/03/10 01:48:58;;;;;;;27.97;16.90;;;;;;;;;;5116047;28;20406;-52
2022/03/10 01:51:27;;;;;;;29.33;14.97;;;;;;;;;;5115905;28;20503;-54
2022/03/10 01:53:54;;;;;;;27.30;15.80;;;;;;;;;;5115867;28;20401;-53
2022/03/10 01:56:21;;;;;;;27.23;16.60;;;;;;;;;;5115882;28;20422;-54
2022/03/10 01:58:48;;;;;;;26.47;16.23;;;;;;;;;;5115833;28;20427;-54
2022/03/10 02:01:15;;;;;;;28.20;17.10;;;;;;;;;;5115809;28;20483;-52
2022/03/10 02:03:41;;;;;;;29.23;16.97;;;;;;;;;;5115478;27;20440;-53
2022/03/10 02:06:07;;;;;;;26.87;15.73;;;;;;;;;;5115518;28;20746;-51
2022/03/10 02:11:19;;;;;;;31.73;17.33;;;;;;;;;;5115808;28;20950;-54
2022/03/10 02:13:45;;;;;;;26.80;16.07;;;;;;;;;;5115817;28;20408;-53
2022/03/10 02:18:57;;;;;;;28.30;17.10;;;;;;;;;;5115517;28;20459;-53
2022/03/10 02:21:23;;;;;;;29.57;15.90;;;;;;;;;;5115371;28;20505;-54
2022/03/10 02:23:52;;;;;;;27.03;16.00;;;;;;;;;;5115468;28;20401;-54
2022/03/10 02:26:18;;;;;;;27.90;16.30;;;;;;;;;;5115745;28;20454;-55
2022/03/10 02:28:44;;;;;;;28.43;16.83;;;;;;;;;;5115716;28;20761;-55
2022/03/10 02:31:11;;;;;;;28.77;16.63;;;;;;;;;;5115339;28;20401;-53
2022/03/10 02:33:37;;;;;;;27.33;14.50;;;;;;;;;;5115290;28;20401;-53
2022/03/10 02:36:04;;;;;;;29.60;16.00;;;;;;;;;;5115326;28;20447;-52
2022/03/10 02:38:30;;;;;;;30.90;17.00;;;;;;;;;;5115295;28;20451;-55
2022/03/10 02:40:56;;;;;;;27.47;16.30;;;;;;;;;;5115148;28;20813;-53
2022/03/10 02:43:23;;;;;;;29.37;17.07;;;;;;;;;;5115214;28;20750;-53
2022/03/10 02:45:52;;;;;;;29.60;16.40;;;;;;;;;;5115060;28;20412;-52
2022/03/10 02:48:19;;;;;;;29.37;16.23;;;;;;;;;;5115015;28;20405;-54
2022/03/10 02:50:45;;;;;;;27.80;16.57;;;;;;;;;;5115210;28;20405;-52
2022/03/10 02:53:11;;;;;;;28.60;15.83;;;;;;;;;;5114997;28;20842;-54
2022/03/10 02:55:38;;;;;;;32.07;15.87;;;;;;;;;;5114843;28;20407;-54
2022/03/10 02:58:04;;;;;;;26.33;14.67;;;;;;;;;;5113949;28;20452;-55
2022/03/10 03:00:30;;;;;;;29.50;16.07;;;;;;;;;;5114728;28;20444;-51
2022/03/10 03:02:56;;;;;;;23.93;14.90;;;;;;;;;;5114873;28;20452;-53
2022/03/10 03:05:22;;;;;;;26.40;15.80;;;;;;;;;;5114686;28;20396;-53
2022/03/10 03:07:48;;;;;;;23.70;15.03;;;;;;;;;;5096533;28;20415;-53
2022/03/10 03:10:14;;;;;;;25.67;15.23;;;;;;;;;;5114757;28;20397;-52
2022/03/10 03:12:50;;;;;;;27.30;16.00;;;;;;;;;;5114569;28;20433;-53
2022/03/10 03:15:17;;;;;;;28.23;16.30;;;;;;;;;;5114700;28;20734;-54
2022/03/10 03:17:43;;;;;;;25.83;15.40;;;;;;;;;;5114330;28;20571;-54
2022/03/10 03:20:14;;;;;;;25.50;15.43;;;;;;;;;;5114312;28;20397;-52
2022/03/10 03:22:40;;;;;;;31.50;16.00;;;;;;;;;;5114429;28;20913;-57
2022/03/10 03:25:06;;;;;;;24.00;14.80;;;;;;;;;;5114425;28;20416;-54
2022/03/10 03:27:35;;;;;;;34.60;15.70;;;;;;;;;;5114326;28;20400;-54
2022/03/10 03:30:02;;;;;;;30.93;16.47;;;;;;;;;;5114173;28;20401;-52
2022/03/10 03:32:28;;;;;;;26.00;15.90;;;;;;;;;;5114269;28;20516;-55
2022/03/10 03:34:54;;;;;;;26.47;15.30;;;;;;;;;;5095686;28;20420;-55
2022/03/10 03:37:20;;;;;;;27.83;15.80;;;;;;;;;;5095924;28;20405;-54
2022/03/10 03:39:49;;;;;;;26.83;16.17;;;;;;;;;;5095913;28;20444;-54
2022/03/10 03:42:15;;;;;;;33.10;15.70;;;;;;;;;;5095585;28;20469;-55
2022/03/10 03:44:41;;;;;;;27.57;16.17;;;;;;;;;;5114004;28;20897;-55
2022/03/10 03:47:07;;;;;;;25.83;15.70;;;;;;;;;;5113759;28;20505;-53
2022/03/10 03:49:33;;;;;;;25.40;15.20;;;;;;;;;;5113841;28;20432;-54
2022/03/10 03:51:59;;;;;;;28.60;14.73;;;;;;;;;;5113664;28;20463;-55
2022/03/10 03:54:29;;;;;;;32.47;16.63;;;;;;;;;;5113591;28;20401;-53
2022/03/10 03:56:55;;;;;;;28.93;16.83;;;;;;;;;;5095399;28;20416;-55
2022/03/10 03:59:21;;;;;;;28.30;15.83;;;;;;;;;;5113413;28;20412;-55
2022/03/10 04:01:50;;;;;;;28.40;16.00;;;;;;;;;;5113624;28;20472;-52
2022/03/10 04:04:19;;;;;;;26.77;14.90;;;;;;;;;;5113518;28;20441;-56
2022/03/10 04:06:45;;;;;;;28.97;14.87;;;;;;;;;;5113625;28;20823;-59
2022/03/10 04:09:14;;;;;;;29.37;16.40;;;;;;;;;;5113404;28;20443;-61
2022/03/10 04:11:40;;;;;;;27.43;15.37;;;;;;;;;;5095108;28;20513;-56
2022/03/10 04:14:06;;;;;;;30.60;16.10;;;;;;;;;;5113306;28;20401;-53
2022/03/10 04:16:33;;;;;;;32.43;15.80;;;;;;;;;;5113283;28;20896;-55
2022/03/10 04:18:59;;;;;;;26.70;15.07;;;;;;;;;;5113092;28;20547;-53
2022/03/10 04:21:25;;;;;;;25.90;14.83;;;;;;;;;;5113059;28;20468;-53
2022/03/10 04:23:51;;;;;;;37.63;16.13;;;;;;;;;;5113129;28;20408;-56
2022/03/10 04:26:17;;;;;;;28.40;14.90;;;;;;;;;;5113429;28;20408;-54
2022/03/10 04:28:43;;;;;;;33.27;15.20;;;;;;;;;;5113158;28;20479;-53
2022/03/10 04:31:09;;;;;;;27.10;14.80;;;;;;;;;;5113191;28;20408;-55
2022/03/10 04:33:37;;;;;;;26.13;15.43;;;;;;;;;;5113007;28;20392;-54
2022/03/10 04:36:03;;;;;;;24.23;14.97;;;;;;;;;;5112967;28;20473;-52
2022/03/10 04:38:29;;;;;;;27.30;15.47;;;;;;;;;;5094692;28;20401;-54
2022/03/10 04:40:55;;;;;;;25.27;15.27;;;;;;;;;;5112845;28;20478;-57
2022/03/10 04:43:21;;;;;;;29.10;15.90;;;;;;;;;;5112998;28;20401;-56
2022/03/10 04:45:47;;;;;;;24.00;15.33;;;;;;;;;;5113088;28;20470;-53
2022/03/10 04:48:13;;;;;;;25.90;16.00;;;;;;;;;;5094902;28;20451;-55
2022/03/10 04:50:40;;;;;;;26.43;15.17;;;;;;;;;;5112846;28;20442;-54
2022/03/10 04:53:06;;;;;;;24.77;14.23;;;;;;;;;;5112904;28;20397;-52
2022/03/10 04:55:32;;;;;;;28.00;15.10;;;;;;;;;;5112860;28;20727;-53
2022/03/10 04:57:58;;;;;;;26.57;15.83;;;;;;;;;;5112667;28;20405;-53
2022/03/10 05:00:24;;;;;;;25.30;14.77;;;;;;;;;;5112601;28;20972;-54
2022/03/10 05:02:51;;;;;;;27.83;15.70;;;;;;;;;;5112891;28;20529;-54
2022/03/10 05:05:18;;;;;;;34.10;15.60;;;;;;;;;;5112885;28;20742;-55
2022/03/10 05:07:44;;;;;;;27.53;15.20;;;;;;;;;;5113036;28;20759;-55
2022/03/10 05:10:11;;;;;;;24.53;14.50;;;;;;;;;;5112624;28;20397;-55
2022/03/10 05:12:46;;;;;;;24.50;14.40;;;;;;;;;;5112730;28;20405;-55
2022/03/10 05:15:12;;;;;;;30.10;16.00;;;;;;;;;;5094358;28;20404;-53
2022/03/10 05:17:38;;;;;;;29.80;15.87;;;;;;;;;;5112498;28;20467;-54
2022/03/10 05:20:05;;;;;;;31.33;15.30;;;;;;;;;;5112524;28;20423;-51
2022/03/10 05:22:47;;;;;;;23.50;14.80;;;;;;;;;;5115914;28;20780;-55
2022/03/10 05:25:14;;;;;;;28.40;16.17;;;;;;;;;;5116867;28;20517;-59
2022/03/10 05:27:44;;;;;;;28.80;14.80;;;;;;;;;;5098349;28;20397;-51
2022/03/10 05:30:11;;;;;;;27.00;15.00;;;;;;;;;;5116441;28;20412;-53
2022/03/10 05:32:37;;;;;;;28.97;15.30;;;;;;;;;;5116522;28;20427;-53
2022/03/10 05:35:04;;;;;;;31.00;15.33;;;;;;;;;;5116297;28;20742;-54
2022/03/10 05:37:30;;;;;;;33.80;16.47;;;;;;;;;;5116422;28;20905;-53
2022/03/10 05:39:57;;;;;;;24.30;15.00;;;;;;;;;;5116298;28;20903;-52
2022/03/10 05:42:23;;;;;;;25.30;15.47;;;;;;;;;;5097779;28;20484;-53
2022/03/10 05:44:49;;;;;;;27.20;14.53;;;;;;;;;;5098105;28;20515;-53
2022/03/10 05:47:15;;;;;;;28.50;15.80;;;;;;;;;;5116323;28;20514;-55
2022/03/10 05:49:41;;;;;;;27.77;15.43;;;;;;;;;;5116184;28;20419;-53
2022/03/10 05:52:07;;;;;;;34.43;15.63;;;;;;;;;;5116030;28;20750;-53
2022/03/10 05:54:33;;;;;;;26.67;14.90;;;;;;;;;;5097906;28;20605;-52
2022/03/10 05:56:59;;;;;;;27.10;15.40;;;;;;;;;;5116001;28;20412;-53
2022/03/10 05:59:25;;;;;;;27.03;16.10;;;;;;;;;;5115833;28;20469;-55
2022/03/10 06:01:51;;;;;;;35.47;16.93;;;;;;;;;;5115774;28;20468;-54
2022/03/10 06:04:17;;;;;;;27.90;15.97;;;;;;;;;;5115936;28;20904;-55
2022/03/10 06:06:43;;;;;;;27.00;15.13;;;;;;;;;;5115852;28;20401;-54
2022/03/10 06:09:10;;;;;;;27.07;15.37;;;;;;;;;;5115835;28;20504;-53
2022/03/10 06:11:36;;;;;;;31.80;15.70;;;;;;;;;;5115780;28;20437;-54
2022/03/10 06:14:02;;;;;;;30.30;16.20;;;;;;;;;;5115833;28;20761;-58
2022/03/10 06:16:28;;;;;;;23.20;14.70;;;;;;;;;;5115754;28;20499;-54
2022/03/10 06:18:54;;;;;;;28.60;16.40;;;;;;;;;;5096946;28;20996;-53
2022/03/10 06:21:21;;;;;;;28.80;16.40;;;;;;;;;;5115602;28;20475;-54
2022/03/10 06:23:50;;;;;;;32.60;17.20;;;;;;;;;;5115657;28;20397;-56
2022/03/10 06:26:16;;;;;;;31.30;16.37;;;;;;;;;;5115572;28;20409;-51
2022/03/10 06:28:43;;;;;;;26.80;15.70;;;;;;;;;;5115312;28;20493;-53
2022/03/10 06:31:09;;;;;;;26.53;15.43;;;;;;;;;;5115188;28;20493;-57
2022/03/10 06:33:36;;;;;;;29.67;15.90;;;;;;;;;;5113973;27;20849;-54
2022/03/10 06:36:02;;;;;;;31.13;16.93;;;;;;;;;;5115336;28;20412;-54
2022/03/10 06:38:28;;;;;;;27.40;16.57;;;;;;;;;;5115217;28;20409;-59
2022/03/10 06:40:55;;;;;;;29.57;15.67;;;;;;;;;;5115040;28;20460;-54
2022/03/10 06:43:21;;;;;;;28.00;16.23;;;;;;;;;;5096798;28;20432;-52
2022/03/10 06:45:47;;;;;;;26.63;15.83;;;;;;;;;;5115299;28;20428;-53
2022/03/10 06:48:13;;;;;;;28.37;16.40;;;;;;;;;;5115026;28;20405;-52
2022/03/10 06:50:39;;;;;;;25.50;15.90;;;;;;;;;;5096494;28;20424;-54
2022/03/10 06:53:05;;;;;;;40.03;16.80;;;;;;;;;;5114923;27;20408;-55
2022/03/10 06:55:31;;;;;;;27.60;16.50;;;;;;;;;;5114827;28;20412;-55
2022/03/10 06:57:58;;;;;;;26.70;15.73;;;;;;;;;;5114707;28;20401;-53
2022/03/10 07:00:24;;;;;;;24.70;15.60;;;;;;;;;;5114651;28;20413;-53
2022/03/10 07:02:52;;;;;;;24.80;15.13;;;;;;;;;;5114607;28;20420;-54
2022/03/10 07:05:21;;;;;;;27.20;15.80;;;;;;;;;;5114906;28;20511;-52
2022/03/10 07:07:47;;;;;;;28.30;15.97;;;;;;;;;;5114789;28;20413;-51
2022/03/10 07:10:13;;;;;;;24.73;14.83;;;;;;;;;;5114430;28;20573;-51
2022/03/10 07:12:40;;;;;;;31.47;15.50;;;;;;;;;;5114510;28;20445;-53
2022/03/10 07:15:07;;;;;;;26.33;15.80;;;;;;;;;;5114462;28;20421;-52
2022/03/10 07:17:33;;;;;;;26.13;16.07;;;;;;;;;;5114273;28;20456;-54
2022/03/10 07:19:59;;;;;;;27.40;16.20;;;;;;;;;;5114453;28;20415;-50
2022/03/10 07:22:25;;;;;;;26.90;15.50;;;;;;;;;;5114338;28;20476;-54
2022/03/10 07:24:51;;;;;;;24.27;14.50;;;;;;;;;;5114387;28;20426;-56
2022/03/10 07:27:20;;;;;;;27.50;15.27;;;;;;;;;;5114403;27;21010;-54
2022/03/10 07:29:46;;;;;;;26.43;15.60;;;;;;;;;;5114510;28;20501;-57
2022/03/10 07:32:12;;;;;;;21.83;13.50;;;;;;;;;;5095888;28;20498;-57
2022/03/10 07:34:39;;;;;;;28.50;15.33;;;;;;;;;;5095752;28;20466;-55
2022/03/10 07:37:05;;;;;;;31.90;15.00;;;;;;;;;;5114019;28;20416;-52
2022/03/10 07:39:31;;;;;;;25.13;14.90;;;;;;;;;;5113953;28;20449;-52
2022/03/10 07:41:57;;;;;;;23.70;13.53;;;;;;;;;;5095324;28;20468;-53
2022/03/10 07:44:25;;;;;;;24.47;14.93;;;;;;;;;;5113356;28;20754;-52
2022/03/10 07:46:51;;;;;;;26.20;14.30;;;;;;;;;;5113843;28;20409;-56
2022/03/10 07:49:17;;;;;;;30.10;14.90;;;;;;;;;;5113631;28;20759;-54
2022/03/10 07:51:44;;;;;;;24.83;14.53;;;;;;;;;;5113551;28;20412;-54
2022/03/10 07:54:10;;;;;;;27.03;14.37;;;;;;;;;;5113647;28;20408;-54
2022/03/10 07:56:39;;;;;;;19.93;13.10;;;;;;;;;;5113533;28;20489;-53
2022/03/10 07:59:05;;;;;;;23.40;13.97;;;;;;;;;;5113397;28;20491;-52
2022/03/10 08:01:31;;;;;;;26.50;15.63;;;;;;;;;;5113512;28;20817;-54
2022/03/10 08:03:58;;;;;;;21.03;13.40;;;;;;;;;;5113494;28;20397;-54
2022/03/10 08:06:26;;;;;;;18.90;13.70;;;;;;;;;;5113442;28;20909;-54
2022/03/10 08:08:52;;;;;;;29.63;14.30;;;;;;;;;;5113466;28;20491;-55
2022/03/10 08:11:18;;;;;;;23.13;14.10;;;;;;;;;;5095226;28;20990;-58
2022/03/10 08:13:44;;;;;;;19.00;12.57;;;;;;;;;;5095335;28;20428;-58
2022/03/10 08:16:11;;;;;;;30.63;13.33;;;;;;;;;;5120347;27;20511;-56
2022/03/10 08:18:38;;;;;;;25.23;14.37;;;;;;;;;;5132410;27;20559;-59
2022/03/10 08:21:04;;;;;;;27.03;13.73;;;;;;;;;;5132830;27;20520;-56
2022/03/10 08:23:31;;;;;;;21.20;13.00;;;;;;;;;;5132827;27;20849;-54
2022/03/10 08:25:58;;;;;;;19.23;12.80;;;;;;;;;;5114469;27;20440;-54
2022/03/10 08:28:26;;;;;;;22.63;13.77;;;;;;;;;;5113469;27;20412;-55
2022/03/10 08:30:52;;;;;;;24.73;14.10;;;;;;;;;;5132672;27;20835;-53
2022/03/10 08:33:18;;;;;;;22.57;13.90;;;;;;;;;;5132549;27;20980;-53
2022/03/10 08:35:48;;;;;;;28.37;14.00;;;;;;;;;;5132834;27;20408;-53
2022/03/10 08:38:14;;;;;;;20.00;13.43;;;;;;;;;;5132403;27;20907;-54
2022/03/10 08:40:40;;;;;;;23.67;14.47;;;;;;;;;;5132466;27;20451;-53
2022/03/10 08:43:08;;;;;;;28.10;15.20;;;;;;;;;;5114016;27;20423;-54
2022/03/10 08:45:34;;;;;;;29.67;13.27;;;;;;;;;;5132439;27;20464;-55
2022/03/10 08:48:03;;;;;;;23.47;14.87;;;;;;;;;;5132238;27;20419;-57
2022/03/10 08:50:29;;;;;;;24.40;14.80;;;;;;;;;;5113713;27;20416;-54
2022/03/10 08:52:55;;;;;;;33.90;14.70;;;;;;;;;;5132684;27;20925;-55
2022/03/10 08:55:22;;;;;;;20.20;13.53;;;;;;;;;;5113323;28;20447;-58
2022/03/10 08:57:48;;;;;;;22.47;13.90;;;;;;;;;;5114011;28;20422;-55
2022/03/10 09:00:15;;;;;;;22.40;14.53;;;;;;;;;;5132425;28;20444;-55
2022/03/10 09:02:41;;;;;;;20.53;13.50;;;;;;;;;;5132330;28;20519;-55
2022/03/10 09:05:08;;;;;;;24.20;15.27;;;;;;;;;;5132546;28;20420;-61
2022/03/10 09:07:35;;;;;;;20.30;14.30;;;;;;;;;;5124516;28;20915;-55
2022/03/10 09:10:01;;;;;;;20.87;14.20;;;;;;;;;;5115395;28;20413;-54
2022/03/10 09:12:29;;;;;;;25.53;15.07;;;;;;;;;;5132243;28;20411;-55
2022/03/10 09:14:56;;;;;;;28.10;14.57;;;;;;;;;;5123076;28;20481;-54
2022/03/10 09:17:22;;;;;;;25.67;14.50;;;;;;;;;;5111666;28;20409;-55
2022/03/10 09:19:49;;;;;;;20.20;13.47;;;;;;;;;;5111900;28;20452;-57
2022/03/10 09:22:15;;;;;;;21.20;14.00;;;;;;;;;;5111848;28;20526;-55
2022/03/10 09:24:42;;;;;;;20.93;13.87;;;;;;;;;;5112271;28;20913;-56
2022/03/10 09:27:09;;;;;;;21.43;13.77;;;;;;;;;;5132180;28;20495;-56
2022/03/10 09:29:35;;;;;;;19.97;12.40;;;;;;;;;;5132187;28;20396;-59
2022/03/10 09:32:01;;;;;;;19.90;13.40;;;;;;;;;;5132004;28;20786;-53
2022/03/10 09:34:30;;;;;;;18.63;13.27;;;;;;;;;;5132011;28;20463;-54
2022/03/10 09:36:56;;;;;;;20.77;13.83;;;;;;;;;;5132071;28;20412;-55
2022/03/10 09:39:22;;;;;;;21.07;13.00;;;;;;;;;;5132038;28;20457;-56
2022/03/10 09:41:51;;;;;;;19.27;12.90;;;;;;;;;;5131742;28;20495;-58
2022/03/10 09:44:18;;;;;;;19.53;12.23;;;;;;;;;;5131979;28;20542;-55
2022/03/10 09:46:47;;;;;;;21.67;12.90;;;;;;;;;;5131936;28;20476;-57
2022/03/10 09:49:16;;;;;;;20.03;12.73;;;;;;;;;;5132236;28;20885;-57
2022/03/10 09:51:42;;;;;;;21.47;13.30;;;;;;;;;;5131847;28;20415;-56
2022/03/10 09:54:08;;;;;;;20.20;13.27;;;;;;;;;;5131654;28;20797;-56
2022/03/10 09:56:38;;;;;;;21.43;14.27;;;;;;;;;;5131759;28;20419;-57
2022/03/10 09:59:10;;;;;;;21.27;12.90;;;;;;;;;;5131877;28;20408;-56
2022/03/10 10:01:36;;;;;;;22.20;13.40;;;;;;;;;;5131730;28;20494;-55
2022/03/10 10:04:06;;;;;;;21.80;14.00;;;;;;;;;;5131770;28;20396;-54
2022/03/10 10:06:52;;;;;;;22.73;13.67;;;;;;;;;;5131812;27;20952;-55
2022/03/10 10:09:20;;;;;;;16.60;12.87;;;;;;;;;;5135332;27;20861;-54
2022/03/10 10:11:50;;;;;;;19.30;13.43;;;;;;;;;;5135664;27;20418;-55
2022/03/10 10:14:35;;;;;;;20.00;14.33;;;;;;;;;;5129513;27;20817;-56
2022/03/10 10:17:01;;;;;;;19.53;13.43;;;;;;;;;;5114709;28;20401;-55
2022/03/10 10:19:27;;;;;;;17.93;12.63;;;;;;;;;;5114519;28;20448;-55
2022/03/10 10:22:09;;;;;;;19.63;12.77;;;;;;;;;;5114245;28;20460;-54
2022/03/10 10:24:38;;;;;;;20.37;11.63;;;;;;;;;;5127579;27;20404;-55
2022/03/10 10:27:17;;;;;;;15.50;11.10;;;;;;;;;;5135178;27;20944;-57
2022/03/10 10:29:51;;;;;;;13.33;9.60;;;;;;;;;;5135330;27;20900;-59
2022/03/10 10:32:31;;;;;;;13.70;9.70;;;;;;;;;;5135031;27;20781;-56
2022/03/10 10:35:01;;;;;;;15.03;10.07;;;;;;;;;;5135018;27;20943;-53
2022/03/10 10:37:27;;;;;;;15.17;10.30;;;;;;;;;;5116368;27;20996;-55
2022/03/10 10:39:59;;;;;;;10.63;9.33;;;;;;;;;;5134718;27;20533;-58
2022/03/10 10:42:28;;;;;;;9.80;7.30;;;;;;;;;;5134532;27;20463;-54
2022/03/10 10:44:55;;;;;;;7.50;6.70;;;;;;;;;;5134960;27;20870;-55
2022/03/10 10:47:21;;;;;;;8.73;7.83;;;;;;;;;;5134676;27;20405;-56
2022/03/10 10:49:56;;;;;;;8.43;6.60;;;;;;;;;;5134726;27;20745;-55
2022/03/10 10:52:22;;;;;;;13.43;7.03;;;;;;;;;;5134574;27;20395;-60
2022/03/10 10:54:48;;;;;;;8.00;6.90;;;;;;;;;;5116063;27;20400;-57
2022/03/10 10:57:21;;;;;;;9.87;8.33;;;;;;;;;;5134542;27;20436;-52
2022/03/10 10:59:47;;;;;;;10.73;8.57;;;;;;;;;;5134577;27;20452;-56
2022/03/10 11:02:17;;;;;;;12.37;8.73;;;;;;;;;;5134182;27;20476;-58
2022/03/10 11:04:44;;;;;;;13.77;9.17;;;;;;;;;;5134413;27;20400;-58
2022/03/10 11:07:11;;;;;;;10.93;8.90;;;;;;;;;;5134302;27;20464;-56
2022/03/10 11:09:37;;;;;;;10.87;8.97;;;;;;;;;;5134296;27;20411;-57
2022/03/10 11:12:04;;;;;;;11.83;9.20;;;;;;;;;;5134066;27;20418;-57
2022/03/10 11:14:31;;;;;;;14.33;9.70;;;;;;;;;;5134000;27;20412;-58
2022/03/10 11:16:58;;;;;;;10.83;9.03;;;;;;;;;;5134145;27;20410;-56
2022/03/10 11:19:25;;;;;;;10.27;9.20;;;;;;;;;;5133005;27;20463;-58
2022/03/10 11:22:06;;;;;;;13.30;10.33;;;;;;;;;;5133842;27;20463;-56
2022/03/10 11:24:51;;;;;;;15.10;10.90;;;;;;;;;;5133828;27;20460;-58
2022/03/10 11:27:19;;;;;;;17.87;12.70;;;;;;;;;;5134127;27;20406;-58
2022/03/10 11:29:50;;;;;;;19.73;12.93;;;;;;;;;;5134093;27;20420;-56
2022/03/10 11:32:16;;;;;;;16.23;11.00;;;;;;;;;;5133756;27;20460;-57
2022/03/10 11:34:46;;;;;;;13.40;11.20;;;;;;;;;;5133809;27;20423;-55
2022/03/10 11:37:13;;;;;;;20.20;12.43;;;;;;;;;;5133576;27;20477;-58
2022/03/10 11:39:55;;;;;;;17.73;12.97;;;;;;;;;;5133893;27;20495;-63
2022/03/10 11:42:25;;;;;;;18.73;13.20;;;;;;;;;;5133523;27;20558;-61
2022/03/10 11:45:05;;;;;;;20.27;13.07;;;;;;;;;;5133832;27;20415;-61
2022/03/10 11:47:31;;;;;;;18.87;11.87;;;;;;;;;;5133635;27;20399;-61
2022/03/10 11:49:57;;;;;;;16.87;12.73;;;;;;;;;;5115006;27;20484;-59
2022/03/10 11:52:24;;;;;;;18.70;14.20;;;;;;;;;;5133383;27;20411;-54
2022/03/10 11:55:19;;;;;;;19.77;13.43;;;;;;;;;;5133452;27;20423;-57
2022/03/10 11:58:04;;;;;;;18.83;12.10;;;;;;;;;;5112260;27;20418;-56
2022/03/10 12:00:43;;;;;;;16.03;11.47;;;;;;;;;;5133165;27;20508;-53
2022/03/10 12:03:09;;;;;;;16.17;11.67;;;;;;;;;;5133240;27;20419;-54
2022/03/10 12:05:55;;;;;;;17.60;11.80;;;;;;;;;;5133385;27;20439;-56
2022/03/10 12:08:22;;;;;;;17.77;12.53;;;;;;;;;;5133090;27;20408;-58
2022/03/10 12:10:48;;;;;;;18.47;11.97;;;;;;;;;;5133317;27;20408;-54
2022/03/10 12:13:20;;;;;;;14.20;11.43;;;;;;;;;;5133152;27;20411;-57
2022/03/10 12:15:47;;;;;;;16.00;9.93;;;;;;;;;;5133076;27;20411;-55
2022/03/10 12:18:14;;;;;;;15.57;10.27;;;;;;;;;;5132680;27;20464;-57
2022/03/10 12:20:41;;;;;;;13.97;10.07;;;;;;;;;;5132943;27;20400;-55
2022/03/10 12:23:09;;;;;;;11.30;9.50;;;;;;;;;;5132675;27;20418;-58
2022/03/10 12:25:42;;;;;;;11.93;9.80;;;;;;;;;;5132850;27;20427;-57
2022/03/10 12:28:20;;;;;;;15.07;9.00;;;;;;;;;;5132771;27;20976;-56
2022/03/10 12:30:47;;;;;;;10.93;9.07;;;;;;;;;;5132683;27;20849;-56
2022/03/10 12:33:14;;;;;;;12.63;9.17;;;;;;;;;;5132748;27;20404;-56
2022/03/10 12:35:43;;;;;;;9.93;8.40;;;;;;;;;;5132704;27;20445;-56
2022/03/10 12:38:09;;;;;;;14.53;9.70;;;;;;;;;;5132407;27;20423;-58
2022/03/10 12:40:37;;;;;;;12.70;9.03;;;;;;;;;;5132320;27;20431;-58
2022/03/10 12:43:07;;;;;;;11.83;9.50;;;;;;;;;;5132479;27;20412;-57
2022/03/10 12:45:33;;;;;;;10.20;8.90;;;;;;;;;;5132352;27;20400;-56
2022/03/10 12:48:19;;;;;;;17.70;8.80;;;;;;;;;;5132330;27;20999;-58
2022/03/10 12:50:46;;;;;;;11.57;8.83;;;;;;;;;;5130989;27;20420;-56
2022/03/10 12:53:13;;;;;;;13.40;9.50;;;;;;;;;;5132565;27;20400;-57
2022/03/10 12:55:39;;;;;;;15.53;9.77;;;;;;;;;;5132549;27;20405;-55
2022/03/10 12:58:06;;;;;;;11.57;8.70;;;;;;;;;;5132318;27;20496;-54
2022/03/10 13:00:36;;;;;;;9.20;7.63;;;;;;;;;;5132168;28;20412;-53
2022/03/10 13:03:04;;;;;;;18.10;8.80;;;;;;;;;;5132352;28;20417;-53
2022/03/10 13:05:31;;;;;;;11.37;8.60;;;;;;;;;;5132478;28;20930;-55
2022/03/10 13:08:08;;;;;;;10.63;9.13;;;;;;;;;;5132264;28;20411;-56
2022/03/10 13:10:34;;;;;;;12.97;10.07;;;;;;;;;;5132383;28;20419;-55
2022/03/10 13:13:00;;;;;;;12.87;9.00;;;;;;;;;;5132357;28;20400;-57
2022/03/10 13:15:29;;;;;;;19.33;8.50;;;;;;;;;;5132068;28;20442;-56
2022/03/10 13:18:03;;;;;;;11.70;8.33;;;;;;;;;;5113404;28;20558;-59
2022/03/10 13:20:30;;;;;;;14.10;8.67;;;;;;;;;;5132016;28;20461;-60
2022/03/10 13:22:57;;;;;;;9.67;8.67;;;;;;;;;;5132091;28;20830;-57
2022/03/10 13:25:27;;;;;;;11.40;8.67;;;;;;;;;;5131948;28;20843;-59
2022/03/10 13:27:59;;;;;;;12.97;9.20;;;;;;;;;;5131995;28;20891;-61
2022/03/10 13:30:29;;;;;;;12.00;7.87;;;;;;;;;;5131898;28;20411;-61
2022/03/10 13:32:56;;;;;;;18.03;10.30;;;;;;;;;;5132046;28;20458;-62
2022/03/10 13:35:24;;;;;;;15.20;9.73;;;;;;;;;;5131986;28;20414;-60
2022/03/10 13:37:53;;;;;;;11.90;9.20;;;;;;;;;;5132138;28;20403;-58
2022/03/10 13:40:20;;;;;;;13.70;10.00;;;;;;;;;;5132001;28;20404;-60
2022/03/10 13:42:46;;;;;;;12.40;10.07;;;;;;;;;;5134202;27;20846;-59
2022/03/10 13:45:13;;;;;;;14.70;10.30;;;;;;;;;;5135935;27;20402;-65
2022/03/10 13:47:56;;;;;;;12.33;9.90;;;;;;;;;;5135810;27;20450;-60
2022/03/10 13:50:30;;;;;;;13.27;10.37;;;;;;;;;;5135957;27;20408;-61
2022/03/10 13:53:00;;;;;;;13.33;9.60;;;;;;;;;;5135902;27;20494;-61
2022/03/10 13:55:26;;;;;;;15.20;9.87;;;;;;;;;;5135715;27;20403;-60
2022/03/10 13:57:52;;;;;;;15.77;10.60;;;;;;;;;;5135750;27;20461;-61
2022/03/10 14:00:24;;;;;;;12.80;10.10;;;;;;;;;;5135331;27;20404;-61
2022/03/10 14:02:53;;;;;;;11.50;10.17;;;;;;;;;;5135519;27;20426;-62
2022/03/10 14:05:20;;;;;;;15.13;11.03;;;;;;;;;;5117088;27;20915;-64
2022/03/10 14:07:53;;;;;;;15.20;10.90;;;;;;;;;;5117163;27;20564;-59
2022/03/10 14:10:31;;;;;;;15.23;10.23;;;;;;;;;;5135279;27;20396;-60
2022/03/10 14:12:57;;;;;;;12.73;9.87;;;;;;;;;;5135257;27;20510;-60
2022/03/10 14:15:27;;;;;;;17.10;10.10;;;;;;;;;;5119818;27;20404;-61
2022/03/10 14:17:56;;;;;;;20.67;11.90;;;;;;;;;;5095988;28;20874;-60
2022/03/10 14:20:22;;;;;;;15.13;11.47;;;;;;;;;;5113977;28;20455;-60
2022/03/10 14:22:51;;;;;;;15.33;12.53;;;;;;;;;;5114486;28;20558;-60
2022/03/10 14:25:17;;;;;;;17.00;11.80;;;;;;;;;;5133722;27;20404;-60
2022/03/10 14:27:44;;;;;;;15.30;12.47;;;;;;;;;;5135100;27;20750;-58